createdAt,value
2023-05-13T00:02:25.359Z,8.85
2023-05-13T00:07:28.353Z,9.10
2023-05-13T00:12:31.219Z,9.38
2023-05-13T00:17:33.283Z,9.48
2023-05-13T00:22:35.196Z,8.85
2023-05-13T00:27:37.175Z,9.55
2023-05-13T00:32:39.125Z,9.15
2023-05-13T00:37:41.004Z,9.43
2023-05-13T00:42:42.794Z,9.27
2023-05-13T00:47:45.038Z,9.30
2023-05-13T00:52:49.895Z,9.00
2023-05-13T00:57:51.702Z,8.95
2023-05-13T01:03:32.414Z,8.32
2023-05-13T01:08:49.653Z,8.90
2023-05-13T01:14:03.400Z,8.80
2023-05-13T01:19:50.753Z,9.05
2023-05-13T01:24:52.590Z,8.35
2023-05-13T01:29:57.586Z,9.20
2023-05-13T01:35:01.915Z,9.27
2023-05-13T01:40:17.118Z,9.10
2023-05-13T01:45:33.364Z,8.52
2023-05-13T01:50:35.576Z,8.57
2023-05-13T01:55:37.424Z,8.00
2023-05-13T02:00:39.352Z,8.15
2023-05-13T02:05:41.285Z,8.20
2023-05-13T02:10:44.876Z,8.93
2023-05-13T02:15:46.741Z,8.30
2023-05-13T02:20:50.308Z,8.60
2023-05-13T02:25:52.197Z,8.13
2023-05-13T02:30:59.827Z,7.93
2023-05-13T02:36:01.757Z,9.10
2023-05-13T02:41:03.689Z,8.80
2023-05-13T02:46:05.601Z,8.57
2023-05-13T02:51:08.126Z,8.57
2023-05-13T02:56:10.167Z,9.48
2023-05-13T03:01:12.462Z,9.38
2023-05-13T03:06:14.353Z,8.77
2023-05-13T03:11:16.525Z,9.27
2023-05-13T03:16:18.411Z,9.40
2023-05-13T03:21:20.513Z,9.43
2023-05-13T03:26:22.430Z,8.82
2023-05-13T03:31:26.001Z,9.63
2023-05-13T03:36:28.908Z,9.77
2023-05-13T03:41:30.815Z,9.43
2023-05-13T03:46:34.180Z,9.77
2023-05-13T03:51:36.704Z,9.45
2023-05-13T03:56:38.570Z,9.63
2023-05-13T04:01:40.901Z,8.93
2023-05-13T04:06:43.527Z,9.43
2023-05-13T04:11:45.514Z,10.20
2023-05-13T04:16:47.569Z,9.43
2023-05-13T04:21:49.486Z,10.27
2023-05-13T04:26:52.717Z,9.68
2023-05-13T04:31:55.335Z,9.32
2023-05-13T04:36:57.153Z,9.15
2023-05-13T04:42:00.510Z,10.48
2023-05-13T04:47:02.604Z,9.18
2023-05-13T04:52:06.393Z,9.60
2023-05-13T04:57:08.733Z,9.00
2023-05-13T05:02:11.782Z,9.75
2023-05-13T05:07:13.724Z,9.35
2023-05-13T05:12:15.736Z,9.05
2023-05-13T05:17:17.605Z,9.85
2023-05-13T05:22:19.984Z,10.30
2023-05-13T05:27:21.809Z,9.40
2023-05-13T05:32:23.854Z,9.65
2023-05-13T05:37:25.772Z,9.20
2023-05-13T05:42:27.641Z,10.00
2023-05-13T05:47:30.807Z,8.98
2023-05-13T05:52:32.728Z,9.48
2023-05-13T05:57:34.545Z,9.30
2023-05-13T06:02:36.503Z,8.82
2023-05-13T06:07:38.522Z,8.77
2023-05-13T06:12:42.920Z,8.65
2023-05-13T06:17:44.794Z,8.25
2023-05-13T06:22:46.734Z,7.90
2023-05-13T06:27:50.068Z,8.27
2023-05-13T06:33:02.879Z,7.95
2023-05-13T06:38:04.870Z,10.45
2023-05-13T06:43:06.843Z,8.50
2023-05-13T06:48:08.850Z,7.53
2023-05-13T06:53:14.011Z,6.22
2023-05-13T06:58:15.966Z,6.00
2023-05-13T07:03:18.036Z,5.63
2023-05-13T07:08:20.453Z,5.55
2023-05-13T07:13:22.729Z,4.05
2023-05-13T07:18:24.777Z,5.05
2023-05-13T07:23:26.920Z,4.55
2023-05-13T07:28:28.841Z,4.72
2023-05-13T07:33:32.405Z,4.15
2023-05-13T07:38:34.315Z,3.90
2023-05-13T07:43:39.531Z,4.20
2023-05-13T07:48:42.602Z,4.18
2023-05-13T07:53:46.981Z,3.75
2023-05-13T07:58:50.444Z,3.95
2023-05-13T08:03:52.454Z,3.50
2023-05-13T08:08:54.508Z,3.97
2023-05-13T08:13:57.945Z,3.90
2023-05-13T08:19:04.394Z,4.20
2023-05-13T08:24:06.918Z,4.20
2023-05-13T08:29:12.945Z,4.40
2023-05-13T08:34:15.428Z,4.13
2023-05-13T08:39:17.305Z,4.05
2023-05-13T08:44:22.432Z,4.50
2023-05-13T08:49:25.565Z,4.35
2023-05-13T08:54:31.125Z,4.60
2023-05-13T08:59:33.074Z,4.18
2023-05-13T09:04:37.800Z,4.55
2023-05-13T09:09:41.262Z,4.38
2023-05-13T09:14:43.146Z,4.50
2023-05-13T09:19:45.297Z,4.63
2023-05-13T09:25:11.435Z,4.78
2023-05-13T09:30:15.330Z,4.97
2023-05-13T09:35:17.896Z,4.15
2023-05-13T09:40:20.046Z,4.72
2023-05-13T09:45:24.076Z,4.55
2023-05-13T09:50:27.985Z,5.10
2023-05-13T09:55:30.312Z,4.22
2023-05-13T10:00:33.561Z,4.20
2023-05-13T10:05:36.772Z,4.78
2023-05-13T10:10:39.765Z,4.70
2023-05-13T10:15:55.854Z,4.75
2023-05-13T10:20:58.143Z,4.55
2023-05-13T10:26:00.776Z,4.32
2023-05-13T10:31:03.024Z,3.97
2023-05-13T10:36:11.466Z,4.10
2023-05-13T10:41:24.640Z,4.15
2023-05-13T10:46:27.538Z,4.22
2023-05-13T10:51:30.787Z,4.40
2023-05-13T10:56:33.002Z,4.15
2023-05-13T11:01:39.266Z,4.30
2023-05-13T11:06:43.882Z,4.35
2023-05-13T11:11:53.435Z,4.38
2023-05-13T11:17:10.416Z,3.80
2023-05-13T11:22:16.824Z,4.18
2023-05-13T11:27:20.537Z,4.25
2023-05-13T11:32:58.972Z,4.28
2023-05-13T11:38:02.535Z,4.00
2023-05-13T11:43:05.933Z,4.50
2023-05-13T11:48:22.326Z,4.00
2023-05-13T11:53:24.171Z,3.83
2023-05-13T11:58:26.203Z,3.70
2023-05-13T12:03:28.267Z,4.35
2023-05-13T12:08:32.002Z,3.63
2023-05-13T12:13:34.164Z,3.67
2023-05-13T12:18:37.849Z,3.47
2023-05-13T12:23:40.910Z,3.40
2023-05-13T12:28:42.968Z,3.50
2023-05-13T12:33:46.958Z,4.03
2023-05-13T12:38:58.116Z,3.65
2023-05-13T12:44:09.574Z,3.70
2023-05-13T12:49:12.154Z,3.30
2023-05-13T12:54:14.289Z,2.70
2023-05-13T12:59:19.164Z,2.75
2023-05-13T13:04:21.309Z,2.90
2023-05-13T13:09:23.266Z,3.88
2023-05-13T13:14:27.871Z,3.63
2023-05-13T13:19:29.823Z,3.88
2023-05-13T13:24:32.050Z,3.45
2023-05-13T13:29:33.931Z,3.58
2023-05-13T13:34:36.082Z,3.40
2023-05-13T13:39:37.977Z,3.50
2023-05-13T13:44:40.248Z,3.05
2023-05-13T13:49:42.205Z,3.45
2023-05-13T13:54:44.089Z,3.42
2023-05-13T13:59:46.032Z,3.38
2023-05-13T14:04:53.337Z,3.65
2023-05-13T14:09:55.383Z,2.13
2023-05-13T14:14:57.384Z,2.20
2023-05-13T14:19:59.286Z,3.00
2023-05-13T14:25:01.424Z,2.40
2023-05-13T14:30:04.093Z,2.28
2023-05-13T14:35:06.706Z,2.55
2023-05-13T14:40:09.627Z,2.72
2023-05-13T14:45:15.940Z,2.35
2023-05-13T14:50:22.879Z,2.50
2023-05-13T14:55:25.019Z,2.40
2023-05-13T15:00:27.088Z,2.97
2023-05-13T15:05:29.149Z,2.70
2023-05-13T15:10:31.355Z,2.58
2023-05-13T15:15:33.707Z,2.35
2023-05-13T15:20:36.220Z,2.05
2023-05-13T15:25:38.113Z,2.72
2023-05-13T15:30:40.214Z,2.80
2023-05-13T15:35:44.522Z,2.53
2023-05-13T15:40:47.454Z,2.92
2023-05-13T15:45:50.234Z,2.30
2023-05-13T15:50:52.264Z,2.28
2023-05-13T15:55:55.585Z,2.30
2023-05-13T16:00:57.519Z,2.40
2023-05-13T16:05:59.566Z,2.60
2023-05-13T16:11:02.510Z,2.78
2023-05-13T16:16:04.741Z,2.75
2023-05-13T16:21:07.592Z,4.78
2023-05-13T16:26:09.612Z,2.00
2023-05-13T16:31:11.454Z,1.90
2023-05-13T16:36:13.389Z,1.70
2023-05-13T16:41:16.712Z,1.52
2023-05-13T16:46:18.646Z,1.52
2023-05-13T16:51:20.566Z,1.95
2023-05-13T16:56:22.931Z,1.88
2023-05-13T17:01:26.344Z,2.97
2023-05-13T17:06:28.252Z,1.98
2023-05-13T17:11:30.142Z,2.00
2023-05-13T17:16:32.381Z,2.42
2023-05-13T17:21:34.266Z,1.92
2023-05-13T17:26:38.278Z,2.03
2023-05-13T17:31:40.712Z,2.00
2023-05-13T17:36:42.575Z,2.35
2023-05-13T17:41:44.592Z,2.78
2023-05-13T17:46:46.363Z,2.83
2023-05-13T17:51:48.230Z,3.10
2023-05-13T17:56:50.741Z,2.58
2023-05-13T18:01:52.618Z,2.88
2023-05-13T18:06:54.457Z,2.63
2023-05-13T18:11:56.280Z,2.58
2023-05-13T18:16:58.927Z,3.00
2023-05-13T18:22:00.779Z,3.10
2023-05-13T18:27:05.171Z,2.78
2023-05-13T18:32:07.479Z,3.30
2023-05-13T18:37:09.346Z,3.20
2023-05-13T18:42:13.018Z,3.50
2023-05-13T18:47:14.868Z,2.67
2023-05-13T18:52:19.206Z,3.28
2023-05-13T18:57:21.466Z,3.67
2023-05-13T19:02:26.425Z,3.92
2023-05-13T19:07:29.483Z,3.88
2023-05-13T19:12:32.541Z,3.53
2023-05-13T19:17:35.160Z,4.28
2023-05-13T19:22:39.502Z,4.03
2023-05-13T19:27:41.508Z,4.43
2023-05-13T19:32:45.335Z,4.20
2023-05-13T19:37:47.259Z,4.15
2023-05-13T19:42:49.451Z,4.50
2023-05-13T19:47:52.897Z,4.85
2023-05-13T19:52:55.469Z,4.85
2023-05-13T19:57:58.348Z,5.35
2023-05-13T20:03:00.242Z,5.65
2023-05-13T20:08:02.375Z,4.90
2023-05-13T20:13:05.646Z,5.95
2023-05-13T20:18:07.440Z,7.22
2023-05-13T20:23:13.171Z,6.40
2023-05-13T20:28:16.435Z,5.40
2023-05-13T20:33:18.422Z,4.43
2023-05-13T20:38:21.495Z,5.20
2023-05-13T20:43:24.523Z,5.03
2023-05-13T20:48:26.860Z,4.80
2023-05-13T20:53:28.763Z,5.03
2023-05-13T20:58:30.857Z,4.78
2023-05-13T21:03:33.397Z,4.80
2023-05-13T21:08:37.208Z,4.53
2023-05-13T21:13:39.222Z,4.28
2023-05-13T21:18:41.345Z,4.47
2023-05-13T21:23:46.821Z,4.70
2023-05-13T21:28:48.741Z,4.93
2023-05-13T21:33:51.196Z,4.40
2023-05-13T21:38:54.248Z,4.60
2023-05-13T21:43:56.266Z,5.15
2023-05-13T21:49:00.047Z,5.18
2023-05-13T21:54:02.022Z,4.97
2023-05-13T21:59:05.078Z,5.20
2023-05-13T22:04:07.266Z,5.00
2023-05-13T22:09:09.438Z,5.00
2023-05-13T22:14:11.356Z,5.55
2023-05-13T22:19:13.670Z,4.57
2023-05-13T22:24:16.198Z,4.90
2023-05-13T22:29:18.710Z,4.97
2023-05-13T22:34:21.822Z,5.40
2023-05-13T22:39:24.856Z,4.88
2023-05-13T22:44:28.057Z,4.90
2023-05-13T22:49:30.035Z,5.65
2023-05-13T22:54:31.999Z,4.85
2023-05-13T22:59:36.402Z,6.07
2023-05-13T23:04:38.984Z,5.40
2023-05-13T23:09:41.205Z,5.40
2023-05-13T23:14:43.097Z,5.90
2023-05-13T23:19:45.005Z,5.68
2023-05-13T23:24:47.029Z,5.90
2023-05-13T23:29:49.965Z,5.82
2023-05-13T23:34:52.230Z,5.97
2023-05-13T23:39:55.118Z,6.10
2023-05-13T23:44:59.143Z,5.88
2023-05-13T23:50:01.117Z,6.07
2023-05-13T23:55:06.507Z,6.63
